Time;durP1;ratioP1;P1;durP2;ratioP2;P2;SDS_P1;SDS_P2;PMS_P1;PMS_P2;Temp;Humidity;BMP_temperature;BMP_pressure;BME280_temperature;BME280_humidity;BME280_pressure;Samples;Min_cycle;Max_cycle;Signal;HPM_P1;HPM_P2
2022/11/15 00:02:13;;;;;;;0.63;0.47;;;20.90;61.00;;;;;;6253582;28;20896;-40
2022/11/15 00:05:35;;;;;;;0.52;0.40;;;20.60;60.70;;;;;;6252494;28;20051;-39
2022/11/15 00:08:53;;;;;;;0.60;0.40;;;21.10;60.80;;;;;;6253678;28;20055;-40
2022/11/15 00:12:13;;;;;;;0.85;0.57;;;21.00;60.50;;;;;;6250585;28;20056;-40
2022/11/15 00:15:36;;;;;;;0.80;0.40;;;20.90;60.50;;;;;;6257951;28;20048;-40
2022/11/15 00:18:53;;;;;;;0.60;0.40;;;20.70;60.30;;;;;;6234772;28;20040;-39
2022/11/15 00:22:13;;;;;;;0.65;0.35;;;20.90;60.60;;;;;;6246281;28;20048;-41
2022/11/15 00:25:34;;;;;;;1.10;0.52;;;20.90;60.40;;;;;;6248968;28;20071;-39
2022/11/15 00:28:53;;;;;;;0.80;0.52;;;21.10;60.70;;;;;;6237775;28;20040;-39
2022/11/15 00:32:14;;;;;;;0.55;0.28;;;21.20;60.80;;;;;;6251288;28;20159;-39
2022/11/15 00:35:34;;;;;;;0.70;0.30;;;21.10;60.80;;;;;;6253556;28;20045;-40
2022/11/15 00:38:53;;;;;;;1.17;0.40;;;20.90;60.60;;;;;;6227304;28;20045;-40
2022/11/15 00:42:13;;;;;;;0.50;0.30;;;21.20;60.70;;;;;;6254104;28;20052;-40
2022/11/15 00:45:33;;;;;;;0.63;0.40;;;21.00;60.60;;;;;;6253752;28;20078;-40
2022/11/15 00:48:54;;;;;;;0.80;0.30;;;21.10;60.80;;;;;;6252844;28;20887;-39
2022/11/15 00:52:13;;;;;;;0.68;0.40;;;21.00;60.70;;;;;;6253855;28;20040;-39
2022/11/15 00:55:33;;;;;;;0.85;0.40;;;21.20;60.80;;;;;;6256544;28;20445;-40
2022/11/15 00:58:53;;;;;;;0.43;0.30;;;21.00;60.90;;;;;;6250591;28;20058;-39
2022/11/15 01:02:13;;;;;;;1.10;0.40;;;21.00;60.90;;;;;;6237233;28;20083;-39
2022/11/15 01:05:36;;;;;;;0.25;0.10;;;21.10;60.90;;;;;;6259976;28;20056;-39
2022/11/15 01:08:53;;;;;;;0.68;0.30;;;20.80;60.60;;;;;;6240123;28;20048;-41
2022/11/15 01:12:13;;;;;;;0.38;0.38;;;21.00;60.60;;;;;;6253807;28;22624;-39
2022/11/15 01:15:33;;;;;;;0.30;0.20;;;20.90;60.70;;;;;;6258726;28;20206;-39
2022/11/15 01:18:53;;;;;;;0.50;0.20;;;21.10;60.80;;;;;;6255790;28;20044;-40
2022/11/15 01:22:14;;;;;;;0.68;0.30;;;20.90;60.50;;;;;;6252420;28;20056;-41
2022/11/15 01:25:42;;;;;;;0.30;0.20;;;21.00;60.50;;;;;;6233543;28;20057;-40
2022/11/15 01:29:07;;;;;;;0.43;0.30;;;21.10;61.10;;;;;;6233775;28;21097;-40
2022/11/15 01:32:23;;;;;;;0.68;0.40;;;21.00;60.90;;;;;;6236617;28;20049;-39
2022/11/15 01:35:43;;;;;;;0.50;0.30;;;20.70;60.80;;;;;;6232387;28;20176;-39
2022/11/15 01:39:04;;;;;;;0.30;0.20;;;20.40;60.20;;;;;;6234271;28;20057;-40
2022/11/15 01:42:23;;;;;;;0.32;0.20;;;20.90;60.50;;;;;;6236396;28;20055;-40
2022/11/15 01:45:46;;;;;;;0.35;0.25;;;21.00;60.70;;;;;;6237053;28;20056;-39
2022/11/15 01:49:13;;;;;;;0.50;0.30;;;21.10;60.90;;;;;;6232321;28;20052;-40
2022/11/15 01:52:34;;;;;;;0.30;0.20;;;20.90;60.80;;;;;;6234959;28;20044;-39
2022/11/15 01:55:54;;;;;;;0.30;0.20;;;20.80;60.80;;;;;;6235495;28;20165;-39
2022/11/15 01:59:14;;;;;;;0.30;0.20;;;20.80;60.80;;;;;;6231450;28;20142;-39
2022/11/15 02:02:35;;;;;;;0.43;0.20;;;21.00;61.10;;;;;;6225945;28;20230;-39
2022/11/15 02:05:53;;;;;;;0.38;0.30;;;20.80;61.00;;;;;;6229995;28;20045;-39
2022/11/15 02:09:14;;;;;;;0.60;0.25;;;21.20;61.30;;;;;;6234690;28;20045;-41
2022/11/15 02:12:35;;;;;;;0.60;0.30;;;20.80;60.80;;;;;;6221897;28;20057;-40
2022/11/15 02:16:01;;;;;;;0.70;0.43;;;20.60;60.60;;;;;;6224108;28;20057;-40
2022/11/15 02:19:48;;;;;;;0.60;0.20;;;21.00;61.00;;;;;;6223869;28;20448;-40
2022/11/15 02:23:33;;;;;;;0.30;0.20;;;20.80;61.00;;;;;;6214763;28;20081;-39
2022/11/15 02:27:23;;;;;;;0.40;0.20;;;20.90;61.10;;;;;;6198648;28;20045;-39
2022/11/15 02:30:47;;;;;;;0.22;0.20;;;21.10;61.20;;;;;;6202876;28;20723;-40
2022/11/15 02:34:15;;;;;;;0.28;0.25;;;21.20;61.20;;;;;;6204527;28;20443;-39
2022/11/15 02:37:39;;;;;;;0.32;0.20;;;20.90;61.20;;;;;;6190193;28;20045;-40
2022/11/15 02:41:00;;;;;;;0.30;0.10;;;20.90;61.10;;;;;;6192806;28;20494;-40
2022/11/15 02:44:19;;;;;;;0.10;0.10;;;21.00;61.20;;;;;;6206373;28;20503;-40
2022/11/15 02:47:40;;;;;;;0.47;0.10;;;20.60;60.90;;;;;;6202810;28;20261;-39
2022/11/15 02:50:54;;;;;;;0.20;0.20;;;20.90;61.30;;;;;;6211261;28;20352;-40
2022/11/15 02:54:18;;;;;;;0.38;0.20;;;21.00;61.30;;;;;;6210711;28;20550;-39
2022/11/15 02:57:45;;;;;;;0.25;0.15;;;20.60;61.10;;;;;;6198092;28;20579;-39
2022/11/15 03:01:10;;;;;;;0.17;0.10;;;20.70;61.10;;;;;;6212621;28;21035;-39
2022/11/15 03:04:34;;;;;;;0.20;0.10;;;20.90;61.30;;;;;;6208198;28;20052;-39
2022/11/15 03:08:00;;;;;;;0.10;0.10;;;20.70;61.10;;;;;;6206427;28;20092;-39
2022/11/15 03:11:24;;;;;;;0.20;0.20;;;20.80;61.20;;;;;;6211186;28;20579;-39
2022/11/15 03:14:50;;;;;;;0.22;0.20;;;21.20;61.60;;;;;;6208784;28;20148;-39
2022/11/15 03:18:10;;;;;;;0.20;0.17;;;20.90;61.30;;;;;;6206523;28;20292;-39
2022/11/15 03:21:25;;;;;;;0.85;0.40;;;21.10;61.50;;;;;;6208136;28;20531;-39
2022/11/15 03:24:45;;;;;;;0.45;0.10;;;20.90;61.40;;;;;;6207911;28;20132;-39
2022/11/15 03:28:06;;;;;;;0.10;0.10;;;20.90;61.40;;;;;;6210019;28;20535;-40
2022/11/15 03:35:08;;;;;;;0.45;0.20;;;21.10;61.70;;;;;;6193679;28;20275;-40
2022/11/15 03:38:26;;;;;;;0.10;0.10;;;20.60;61.50;;;;;;6192956;28;20152;-39
2022/11/15 03:41:49;;;;;;;0.70;0.47;;;21.00;61.70;;;;;;6190411;28;20107;-40
2022/11/15 03:45:13;;;;;;;0.10;0.10;;;20.70;61.70;;;;;;6206899;28;20044;-39
2022/11/15 03:48:37;;;;;;;0.10;0.10;;;20.90;61.80;;;;;;6196001;28;20053;-40
2022/11/15 03:51:56;;;;;;;0.15;0.15;;;20.60;61.70;;;;;;6203781;28;20085;-41
2022/11/15 03:55:16;;;;;;;0.20;0.10;;;20.60;61.80;;;;;;6206507;28;20057;-39
2022/11/15 03:58:33;;;;;;;0.30;0.22;;;20.90;62.00;;;;;;6194899;28;20260;-41
2022/11/15 04:01:53;;;;;;;0.45;0.20;;;20.70;62.20;;;;;;6203861;28;20069;-40
2022/11/15 04:05:13;;;;;;;0.38;0.20;;;21.00;62.30;;;;;;6208989;28;20734;-40
2022/11/15 04:08:33;;;;;;;0.30;0.10;;;20.60;62.20;;;;;;6206852;28;20076;-40
2022/11/15 04:11:54;;;;;;;0.15;0.10;;;21.00;62.40;;;;;;6208527;28;20060;-39
2022/11/15 04:15:16;;;;;;;0.10;0.10;;;20.90;62.50;;;;;;6205645;28;20203;-40
2022/11/15 04:18:33;;;;;;;0.10;0.10;;;20.90;62.40;;;;;;6198865;28;20131;-40
2022/11/15 04:25:24;;;;;;;1.00;0.63;;;20.80;62.60;;;;;;6212872;28;20052;-41
2022/11/15 04:32:13;;;;;;;0.20;0.20;;;20.90;62.50;;;;;;6192734;28;20044;-40
2022/11/15 04:35:33;;;;;;;1.17;0.20;;;20.50;62.80;;;;;;6208981;28;20094;-40
2022/11/15 04:38:53;;;;;;;0.10;0.10;;;21.00;63.00;;;;;;6208933;28;20155;-40
2022/11/15 04:42:13;;;;;;;0.30;0.20;;;21.20;63.10;;;;;;6206621;28;20656;-40
2022/11/15 04:45:34;;;;;;;0.40;0.30;;;21.00;63.10;;;;;;6209976;28;20172;-40
2022/11/15 04:48:54;;;;;;;0.15;0.15;;;20.90;63.10;;;;;;6199928;28;20583;-40
2022/11/15 04:52:13;;;;;;;0.52;0.30;;;21.10;63.20;;;;;;6206967;28;20041;-42
2022/11/15 04:55:33;;;;;;;0.35;0.30;;;20.90;63.30;;;;;;6205925;28;20380;-40
2022/11/15 04:58:53;;;;;;;0.20;0.20;;;21.10;63.50;;;;;;6202836;28;20087;-40
2022/11/15 05:02:14;;;;;;;0.25;0.20;;;20.70;63.40;;;;;;6200443;28;20046;-40
2022/11/15 05:05:33;;;;;;;0.47;0.20;;;21.00;63.90;;;;;;6202989;28;20644;-40
2022/11/15 05:08:54;;;;;;;0.98;0.22;;;20.70;63.90;;;;;;6207247;28;20044;-40
2022/11/15 05:12:13;;;;;;;0.47;0.30;;;20.80;64.00;;;;;;6191731;28;20041;-40
2022/11/15 05:15:33;;;;;;;0.40;0.30;;;20.70;64.10;;;;;;6206045;28;20064;-40
2022/11/15 05:18:55;;;;;;;1.42;0.50;;;20.90;64.30;;;;;;6199119;28;20088;-42
2022/11/15 05:22:13;;;;;;;0.68;0.40;;;21.00;64.40;;;;;;6182775;28;20871;-41
2022/11/15 05:25:35;;;;;;;0.98;0.30;;;20.70;64.50;;;;;;6198556;28;20531;-40
2022/11/15 05:28:54;;;;;;;1.77;0.57;;;20.80;64.50;;;;;;6188446;28;20056;-40
2022/11/15 05:32:14;;;;;;;1.85;0.60;;;20.90;64.70;;;;;;6197268;28;20091;-40
2022/11/15 05:35:38;;;;;;;1.52;0.40;;;21.00;64.90;;;;;;6204900;28;20045;-40
2022/11/15 05:38:54;;;;;;;1.58;0.60;;;20.90;65.10;;;;;;6200077;28;20338;-40
2022/11/15 05:42:15;;;;;;;2.08;0.40;;;20.90;64.90;;;;;;6198060;28;20245;-40
2022/11/15 05:45:34;;;;;;;1.83;0.30;;;20.80;65.10;;;;;;6192229;28;20722;-41
2022/11/15 05:48:55;;;;;;;2.28;0.60;;;21.30;65.60;;;;;;6196949;28;20053;-40
2022/11/15 05:52:17;;;;;;;1.17;0.50;;;21.20;65.70;;;;;;6175668;28;20057;-40
2022/11/15 05:55:34;;;;;;;3.55;1.00;;;20.90;65.50;;;;;;6192170;28;21388;-40
2022/11/15 05:58:55;;;;;;;1.45;0.70;;;19.90;65.70;;;;;;6196540;28;20048;-41
2022/11/15 06:02:13;;;;;;;2.30;1.00;;;20.90;65.70;;;;;;6196566;28;20624;-40
2022/11/15 06:05:33;;;;;;;2.38;1.00;;;20.60;65.90;;;;;;6204310;28;20274;-41
2022/11/15 06:08:54;;;;;;;1.85;0.80;;;20.80;65.90;;;;;;6198083;28;20051;-41
2022/11/15 06:12:14;;;;;;;2.72;1.00;;;20.70;66.00;;;;;;6196511;28;20056;-40
2022/11/15 06:15:34;;;;;;;2.38;1.13;;;21.40;66.00;;;;;;6201957;28;21795;-40
2022/11/15 06:18:53;;;;;;;1.75;0.60;;;20.60;65.20;;;;;;6200772;28;20048;-41
2022/11/15 06:22:14;;;;;;;1.27;0.60;;;20.90;66.50;;;;;;6200859;28;20152;-40
2022/11/15 06:25:34;;;;;;;2.45;0.88;;;20.90;66.60;;;;;;6182952;28;20715;-39
2022/11/15 06:28:54;;;;;;;1.63;0.60;;;21.00;66.00;;;;;;6201755;28;21119;-40
2022/11/15 06:32:13;;;;;;;0.93;0.60;;;20.80;67.30;;;;;;6202820;28;20053;-40
2022/11/15 06:35:35;;;;;;;1.38;0.55;;;21.00;66.90;;;;;;6205518;28;20049;-42
2022/11/15 06:38:53;;;;;;;2.25;0.73;;;20.80;66.80;;;;;;6198886;28;20049;-40
2022/11/15 06:42:14;;;;;;;1.17;0.55;;;20.70;66.80;;;;;;6191303;28;20056;-40
2022/11/15 06:45:34;;;;;;;1.05;0.52;;;20.80;67.00;;;;;;6188729;28;20037;-40
2022/11/15 06:48:54;;;;;;;1.20;0.50;;;20.80;67.10;;;;;;6199797;28;20109;-40
2022/11/15 06:52:13;;;;;;;0.77;0.40;;;20.90;67.10;;;;;;6203228;28;20056;-40
2022/11/15 06:55:34;;;;;;;0.75;0.43;;;20.90;67.10;;;;;;6198210;28;21056;-41
2022/11/15 06:58:55;;;;;;;0.80;0.32;;;20.70;67.30;;;;;;6187721;28;20080;-40
2022/11/15 07:02:14;;;;;;;0.63;0.30;;;21.00;67.50;;;;;;6174188;28;20137;-40
2022/11/15 07:05:34;;;;;;;2.70;0.65;;;20.40;67.40;;;;;;6186867;28;20108;-42
2022/11/15 07:08:54;;;;;;;0.80;0.35;;;20.30;68.00;;;;;;6184738;28;20053;-40
2022/11/15 07:12:14;;;;;;;0.85;0.40;;;21.20;68.10;;;;;;6174998;28;21471;-40
2022/11/15 07:15:34;;;;;;;1.20;0.60;;;21.10;67.80;;;;;;6172215;28;20049;-40
2022/11/15 07:18:53;;;;;;;0.40;0.30;;;20.90;68.20;;;;;;6165845;28;20057;-40
2022/11/15 07:22:14;;;;;;;0.30;0.20;;;20.90;68.10;;;;;;6153858;28;20052;-40
2022/11/15 07:25:34;;;;;;;0.30;0.30;;;20.90;68.40;;;;;;6167047;28;20056;-40
2022/11/15 07:28:54;;;;;;;1.00;0.30;;;20.80;68.30;;;;;;6148987;28;20160;-40
2022/11/15 07:32:14;;;;;;;0.50;0.20;;;20.70;68.40;;;;;;6125497;28;20053;-40
2022/11/15 07:35:33;;;;;;;0.57;0.32;;;21.30;69.00;;;;;;6140842;28;20085;-40
2022/11/15 07:38:54;;;;;;;0.20;0.17;;;20.50;68.60;;;;;;6142733;28;21222;-39
2022/11/15 07:45:45;;;;;;;0.30;0.20;;;21.10;69.10;;;;;;6099976;28;20060;-41
2022/11/15 07:49:04;;;;;;;0.65;0.40;;;21.00;69.10;;;;;;6098666;28;21400;-39
2022/11/15 07:52:24;;;;;;;1.52;0.17;;;21.10;69.40;;;;;;6073219;28;20138;-41
2022/11/15 07:55:44;;;;;;;0.50;0.30;;;20.70;67.90;;;;;;6081677;28;20049;-42
2022/11/15 07:59:04;;;;;;;6.72;0.40;;;21.10;69.70;;;;;;6056862;28;20182;-39
2022/11/15 08:02:20;;;;;;;0.30;0.30;;;21.40;69.70;;;;;;6092278;22;20052;-39
2022/11/15 08:05:50;;;;;;;0.68;0.30;;;21.30;69.90;;;;;;6011550;28;21010;-39
2022/11/15 08:09:04;;;;;;;0.93;0.38;;;21.20;69.80;;;;;;6016667;28;20095;-39
2022/11/15 08:12:26;;;;;;;0.50;0.30;;;21.00;69.50;;;;;;6012016;28;20060;-40
2022/11/15 08:15:44;;;;;;;1.27;0.38;;;20.60;69.30;;;;;;6033165;28;20183;-39
2022/11/15 08:19:04;;;;;;;0.40;0.30;;;21.40;69.70;;;;;;5962579;28;20056;-39
2022/11/15 08:22:24;;;;;;;0.50;0.20;;;21.00;69.10;;;;;;5994214;28;21558;-39
2022/11/15 08:25:43;;;;;;;0.38;0.20;;;21.20;69.70;;;;;;6006498;28;20055;-40
2022/11/15 08:29:04;;;;;;;0.63;0.30;;;21.20;69.70;;;;;;5977490;28;22568;-39
2022/11/15 08:32:24;;;;;;;0.35;0.20;;;21.30;70.60;;;;;;5966098;28;20051;-38
2022/11/15 08:35:45;;;;;;;0.88;0.30;;;21.20;69.30;;;;;;5979912;28;20055;-38
2022/11/15 08:39:05;;;;;;;0.20;0.20;;;21.10;70.00;;;;;;6004937;28;21217;-37
2022/11/15 08:42:24;;;;;;;0.93;0.20;;;21.00;69.90;;;;;;5997167;28;20059;-38
2022/11/15 08:45:47;;;;;;;0.60;0.20;;;21.10;70.00;;;;;;5990086;28;21449;-38
2022/11/15 08:49:04;;;;;;;0.30;0.30;;;21.10;69.70;;;;;;6011493;28;20048;-37
2022/11/15 08:52:24;;;;;;;0.93;0.40;;;21.40;70.30;;;;;;6002075;28;20165;-37
2022/11/15 08:55:44;;;;;;;0.30;0.22;;;21.30;69.90;;;;;;6056936;22;20927;-37
2022/11/15 08:59:04;;;;;;;0.30;0.15;;;21.50;70.50;;;;;;6004535;28;20060;-37
2022/11/15 09:02:24;;;;;;;0.40;0.40;;;21.40;69.80;;;;;;5971311;28;23143;-37
2022/11/15 09:05:44;;;;;;;0.25;0.25;;;21.50;70.20;;;;;;5954556;28;20051;-38
2022/11/15 09:09:04;;;;;;;0.10;0.10;;;21.30;69.80;;;;;;5960639;28;20052;-39
2022/11/15 09:12:25;;;;;;;0.40;0.20;;;21.30;70.60;;;;;;5979983;28;20167;-39
2022/11/15 09:15:44;;;;;;;0.70;0.20;;;21.50;70.00;;;;;;5987869;28;20048;-39
2022/11/15 09:19:04;;;;;;;0.10;0.10;;;21.40;70.70;;;;;;5991499;28;20053;-39
2022/11/15 09:22:27;;;;;;;1.30;0.30;;;21.10;70.50;;;;;;5969642;28;20092;-39
2022/11/15 09:25:44;;;;;;;0.10;0.10;;;21.20;70.10;;;;;;5945254;28;20052;-40
2022/11/15 09:29:04;;;;;;;0.10;0.10;;;21.20;70.20;;;;;;5970545;28;21756;-39
2022/11/15 09:32:28;;;;;;;0.45;0.10;;;21.30;70.60;;;;;;5928994;28;20048;-40
2022/11/15 09:35:54;;;;;;;0.30;0.20;;;21.10;70.50;;;;;;5906517;28;20057;-39
2022/11/15 09:39:14;;;;;;;0.30;0.10;;;21.70;70.60;;;;;;5937609;28;20767;-39
2022/11/15 09:42:46;;;;;;;0.43;0.30;;;21.40;70.40;;;;;;5958794;28;20060;-40
2022/11/15 09:46:15;;;;;;;0.22;0.20;;;21.40;70.20;;;;;;5978021;28;20092;-39
2022/11/15 09:49:34;;;;;;;0.68;0.40;;;21.50;70.70;;;;;;5967158;28;20060;-39
2022/11/15 09:52:49;;;;;;;0.22;0.13;;;21.60;70.50;;;;;;5961252;28;23712;-39
2022/11/15 09:56:04;;;;;;;0.20;0.10;;;21.30;70.00;;;;;;5987846;28;20179;-39
2022/11/15 09:59:22;;;;;;;0.30;0.22;;;21.40;70.60;;;;;;5910552;28;20896;-38
2022/11/15 10:02:39;;;;;;;0.65;0.22;;;21.50;70.60;;;;;;5820847;28;21519;-38
2022/11/15 10:05:43;;;;;;;0.40;0.25;;;21.10;70.60;;;;;;5881640;28;20399;-38
2022/11/15 10:08:53;;;;;;;0.77;0.38;;;21.60;70.80;;;;;;5897893;28;20059;-43
2022/11/15 10:11:55;;;;;;;0.20;0.13;;;21.60;70.90;;;;;;5906306;28;20038;-43
2022/11/15 10:15:01;;;;;;;0.43;0.30;;;21.60;70.80;;;;;;5928554;28;20180;-40
2022/11/15 10:18:16;;;;;;;0.30;0.20;;;21.50;71.00;;;;;;5907341;28;20084;-40
2022/11/15 10:21:21;;;;;;;0.30;0.20;;;21.50;71.10;;;;;;5929333;28;20163;-40
2022/11/15 10:24:28;;;;;;;0.95;0.30;;;21.40;71.00;;;;;;5942860;28;21367;-41
2022/11/15 10:27:30;;;;;;;1.48;0.20;;;21.20;70.90;;;;;;5964330;28;20083;-40
2022/11/15 10:30:34;;;;;;;;;;;21.10;71.20;;;;;;5764717;28;20170;-40
2022/11/15 10:33:38;;;;;;;0.25;0.10;;;21.10;71.30;;;;;;5294942;28;21097;-38
2022/11/15 10:36:46;;;;;;;0.50;0.20;;;21.40;70.90;;;;;;5944965;28;20041;-38
2022/11/15 10:40:04;;;;;;;0.50;0.30;;;21.00;71.00;;;;;;5949162;28;20081;-39
2022/11/15 10:43:15;;;;;;;0.47;0.30;;;21.60;71.20;;;;;;5926147;28;20096;-41
2022/11/15 10:46:20;;;;;;;0.68;0.40;;;21.50;71.30;;;;;;5929948;28;20048;-40
2022/11/15 10:49:54;;;;;;;1.48;0.40;;;21.50;71.50;;;;;;5929961;28;21761;-39
2022/11/15 10:52:56;;;;;;;0.57;0.50;;;21.70;71.80;;;;;;4954319;28;20055;-39
2022/11/15 10:56:01;;;;;;;0.98;0.50;;;21.60;71.60;;;;;;5983741;28;20041;-40
2022/11/15 10:59:03;;;;;;;0.70;0.40;;;21.50;71.50;;;;;;5971446;28;21670;-39
2022/11/15 11:02:27;;;;;;;0.50;0.25;;;21.60;71.80;;;;;;5963744;28;20088;-40
2022/11/15 11:05:32;;;;;;;0.52;0.35;;;21.40;71.50;;;;;;5925702;28;20048;-39
2022/11/15 11:08:56;;;;;;;0.30;0.25;;;21.50;71.60;;;;;;5975230;28;20059;-40
2022/11/15 11:12:00;;;;;;;0.60;0.30;;;21.90;71.80;;;;;;6005545;28;21861;-39
2022/11/15 11:15:11;;;;;;;0.20;0.20;;;21.60;71.80;;;;;;6004372;28;20086;-39
2022/11/15 11:18:19;;;;;;;0.80;0.20;;;21.60;71.80;;;;;;6005379;28;20048;-40
2022/11/15 11:21:29;;;;;;;0.68;0.30;;;21.70;71.80;;;;;;6008191;28;22642;-40
2022/11/15 11:24:44;;;;;;;0.20;0.20;;;21.30;71.50;;;;;;5987594;28;20052;-40
2022/11/15 11:27:57;;;;;;;1.30;0.30;;;21.70;71.90;;;;;;5971341;28;20045;-39
2022/11/15 11:31:20;;;;;;;0.30;0.28;;;21.60;71.90;;;;;;5981567;28;20700;-39
2022/11/15 11:34:38;;;;;;;0.32;0.30;;;21.20;71.70;;;;;;5972359;28;20132;-39
2022/11/15 11:37:47;;;;;;;0.22;0.20;;;21.70;72.10;;;;;;6001875;28;21798;-39
2022/11/15 11:41:00;;;;;;;0.30;0.17;;;21.60;71.80;;;;;;6044714;28;20044;-39
2022/11/15 11:44:15;;;;;;;1.58;0.20;;;21.40;71.80;;;;;;6037664;28;20155;-37
2022/11/15 11:47:23;;;;;;;0.70;0.35;;;21.40;71.80;;;;;;6050908;28;20048;-38
2022/11/15 11:50:27;;;;;;;0.30;0.10;;;21.70;71.90;;;;;;6045768;28;20154;-38
2022/11/15 11:53:33;;;;;;;0.20;0.20;;;21.50;71.90;;;;;;6025027;28;20059;-37
2022/11/15 11:56:39;;;;;;;0.25;0.20;;;21.70;72.00;;;;;;6038367;28;20095;-38
2022/11/15 11:59:48;;;;;;;1.00;0.20;;;21.60;72.00;;;;;;6075033;28;20037;-38
2022/11/15 12:03:02;;;;;;;0.30;0.15;;;21.80;72.00;;;;;;6065355;28;21146;-39
2022/11/15 12:06:12;;;;;;;0.65;0.30;;;22.00;71.60;;;;;;6099383;28;20236;-38
2022/11/15 12:09:23;;;;;;;0.47;0.30;;;21.50;72.50;;;;;;6112373;28;20056;-38
2022/11/15 12:12:31;;;;;;;0.32;0.20;;;22.00;71.80;;;;;;6074804;28;20044;-38
2022/11/15 12:15:39;;;;;;;0.55;0.25;;;21.80;71.60;;;;;;6068258;28;20040;-39
2022/11/15 12:18:48;;;;;;;0.50;0.20;;;22.00;71.50;;;;;;6095790;28;20052;-39
2022/11/15 12:21:56;;;;;;;0.20;0.20;;;21.40;71.00;;;;;;6054636;28;20053;-38
2022/11/15 12:25:03;;;;;;;1.70;0.30;;;21.80;71.00;;;;;;6070156;28;22470;-39
2022/11/15 12:28:16;;;;;;;0.35;0.20;;;21.70;71.00;;;;;;4856669;28;21635;-39
2022/11/15 12:31:24;;;;;;;0.20;0.20;;;21.70;70.30;;;;;;5365113;28;20045;-39
2022/11/15 12:34:40;;;;;;;0.80;0.25;;;21.20;71.20;;;;;;4027366;28;20619;-39
2022/11/15 12:37:49;;;;;;;0.32;0.20;;;21.50;70.30;;;;;;6049096;28;20554;-39
2022/11/15 12:41:10;;;;;;;0.80;0.32;;;21.90;70.10;;;;;;6025699;28;20183;-39
2022/11/15 12:44:35;;;;;;;0.57;0.23;;;21.50;69.90;;;;;;6055799;28;20053;-39
2022/11/15 12:47:37;;;;;;;0.32;0.17;;;22.00;70.00;;;;;;6038090;28;20059;-39
2022/11/15 12:50:54;;;;;;;0.40;0.10;;;21.40;69.50;;;;;;6045563;28;21321;-39
2022/11/15 12:53:55;;;;;;;0.47;0.28;;;21.70;69.50;;;;;;5975150;28;20206;-39
2022/11/15 12:57:23;;;;;;;1.35;0.30;;;21.50;68.90;;;;;;6000905;28;20048;-39
2022/11/15 13:00:39;;;;;;;1.30;0.20;;;21.70;69.30;;;;;;5928306;28;21773;-38
2022/11/15 13:04:15;;;;;;;0.88;0.20;;;22.10;69.50;;;;;;5291105;28;22847;-39
2022/11/15 13:07:48;;;;;;;0.32;0.20;;;21.40;67.30;;;;;;5888879;28;20060;-39
2022/11/15 13:10:50;;;;;;;0.30;0.10;;;21.80;68.70;;;;;;5781999;28;20045;-42
2022/11/15 13:13:52;;;;;;;0.57;0.30;;;21.60;68.50;;;;;;5923223;28;20056;-39
2022/11/15 13:16:58;;;;;;;0.22;0.10;;;21.60;68.10;;;;;;5921711;28;20087;-40
2022/11/15 13:20:14;;;;;;;0.55;0.32;;;21.90;67.90;;;;;;5939456;28;23170;-39
2022/11/15 13:23:16;;;;;;;0.15;0.10;;;21.90;67.50;;;;;;5873006;28;20131;-39
2022/11/15 13:26:20;;;;;;;1.90;0.30;;;21.80;67.00;;;;;;5927746;28;20733;-39
2022/11/15 13:29:22;;;;;;;1.10;0.10;;;22.00;67.20;;;;;;5936440;28;20164;-39
2022/11/15 13:32:24;;;;;;;0.35;0.20;;;21.50;66.40;;;;;;5879366;28;20057;-40
2022/11/15 13:35:28;;;;;;;0.20;0.17;;;21.90;67.00;;;;;;5884752;28;20037;-39
2022/11/15 13:38:32;;;;;;;0.30;0.20;;;21.90;66.50;;;;;;5929568;28;20149;-39
2022/11/15 13:41:44;;;;;;;0.63;0.20;;;21.80;66.60;;;;;;5935219;28;21323;-41
2022/11/15 13:44:55;;;;;;;0.32;0.10;;;21.80;66.60;;;;;;6019846;28;21399;-41
2022/11/15 13:47:58;;;;;;;;;;;21.90;67.00;;;;;;5988380;28;21659;-40
2022/11/15 13:51:03;;;;;;;0.50;0.20;;;21.60;67.00;;;;;;5968355;28;19994;-39
2022/11/15 13:54:16;;;;;;;0.55;0.20;;;21.70;66.80;;;;;;5983218;28;20044;-43
2022/11/15 13:57:23;;;;;;;0.38;0.10;;;21.90;67.10;;;;;;5977660;28;20290;-39
2022/11/15 14:00:30;;;;;;;1.20;0.20;;;21.70;67.30;;;;;;5970266;28;23143;-39
2022/11/15 14:03:34;;;;;;;0.47;0.20;;;21.90;67.40;;;;;;5905472;28;20079;-41
2022/11/15 14:06:45;;;;;;;0.45;0.20;;;21.90;67.50;;;;;;5900878;28;22967;-38
2022/11/15 14:09:47;;;;;;;0.90;0.30;;;22.00;67.50;;;;;;5904902;28;20056;-38
2022/11/15 14:12:51;;;;;;;0.50;0.20;;;22.20;67.60;;;;;;5942051;28;20174;-38
2022/11/15 14:15:53;;;;;;;0.50;0.20;;;21.80;67.10;;;;;;5980182;28;20078;-38
2022/11/15 14:18:55;;;;;;;0.35;0.20;;;22.00;67.30;;;;;;5955003;28;20040;-37
2022/11/15 14:22:14;;;;;;;0.73;0.30;;;21.90;67.30;;;;;;5886852;28;20095;-39
2022/11/15 14:25:19;;;;;;;0.30;0.20;;;22.00;81.00;;;;;;5920961;23;20067;-38
2022/11/15 14:28:32;;;;;;;0.60;0.35;;;22.10;66.30;;;;;;5943875;22;20059;-38
2022/11/15 14:31:35;;;;;;;0.50;0.30;;;21.70;66.00;;;;;;5965790;28;22320;-38
2022/11/15 14:34:44;;;;;;;0.30;0.20;;;22.30;65.70;;;;;;5968246;28;21146;-38
2022/11/15 14:37:46;;;;;;;0.32;0.25;;;22.00;65.60;;;;;;5992051;28;20041;-38
2022/11/15 14:40:48;;;;;;;0.15;0.10;;;22.00;65.70;;;;;;5953206;28;20040;-37
2022/11/15 14:43:51;;;;;;;0.22;0.15;;;21.80;64.90;;;;;;5958249;28;20050;-38
2022/11/15 14:46:52;;;;;;;1.10;0.20;;;21.90;64.90;;;;;;5978517;28;20047;-37
2022/11/15 14:49:54;;;;;;;;;;;22.10;64.90;;;;;;6023562;28;21443;-37
2022/11/15 14:52:56;;;;;;;0.25;0.10;;;22.10;64.70;;;;;;5965922;28;19976;-39
2022/11/15 14:55:57;;;;;;;0.30;0.10;;;21.90;63.60;;;;;;5984567;28;20048;-37
2022/11/15 14:58:59;;;;;;;;;;;22.40;64.50;;;;;;5985992;28;20654;-38
2022/11/15 15:02:01;;;;;;;1.00;0.32;;;22.20;64.60;;;;;;5938917;28;19928;-39
2022/11/15 15:05:13;;;;;;;0.47;0.20;;;22.10;64.00;;;;;;5957524;22;20059;-38
2022/11/15 15:08:15;;;;;;;0.50;0.30;;;21.90;63.60;;;;;;5947423;28;20033;-38
2022/11/15 15:11:21;;;;;;;0.77;0.20;;;22.00;63.40;;;;;;5996189;28;20213;-38
2022/11/15 15:14:23;;;;;;;0.68;0.30;;;22.10;63.50;;;;;;6001690;28;22193;-40
2022/11/15 15:17:25;;;;;;;0.30;0.20;;;21.90;62.70;;;;;;6005115;28;20044;-37
2022/11/15 15:20:30;;;;;;;0.28;0.20;;;22.00;62.90;;;;;;5992896;28;20048;-38
2022/11/15 15:23:31;;;;;;;0.22;0.10;;;22.10;62.80;;;;;;5961362;28;20170;-39
2022/11/15 15:26:36;;;;;;;0.10;0.10;;;22.00;62.60;;;;;;6009467;28;20097;-38
2022/11/15 15:29:38;;;;;;;0.65;0.15;;;22.30;62.10;;;;;;5963315;28;20560;-39
2022/11/15 15:32:40;;;;;;;1.27;0.20;;;22.10;62.00;;;;;;5956965;28;20044;-38
2022/11/15 15:35:42;;;;;;;0.25;0.20;;;22.10;61.40;;;;;;6027668;28;20152;-37
2022/11/15 15:38:46;;;;;;;0.20;0.10;;;22.20;61.80;;;;;;6008393;28;20040;-38
2022/11/15 15:41:47;;;;;;;0.13;0.10;;;22.10;61.30;;;;;;5996338;28;20052;-38
2022/11/15 15:44:52;;;;;;;0.30;0.10;;;21.90;61.10;;;;;;5012768;28;20044;-39
2022/11/15 15:47:54;;;;;;;0.35;0.20;;;22.20;60.80;;;;;;6019413;28;20045;-39
2022/11/15 15:50:57;;;;;;;0.15;0.10;;;22.10;61.20;;;;;;6003807;28;20176;-39
2022/11/15 15:53:58;;;;;;;0.20;0.10;;;22.10;60.80;;;;;;6006114;28;21730;-38
2022/11/15 15:57:00;;;;;;;0.20;0.10;;;22.20;60.90;;;;;;6004369;28;20045;-39
2022/11/15 16:00:04;;;;;;;0.30;0.30;;;22.10;60.60;;;;;;5966831;28;20626;-39
2022/11/15 16:03:13;;;;;;;1.02;0.35;;;22.00;60.40;;;;;;5927265;28;20970;-38
2022/11/15 16:06:29;;;;;;;;;;;22.00;60.30;;;;;;5952161;28;20364;-39
2022/11/15 16:12:44;;;;;;;0.20;0.20;;;22.20;60.60;;;;;;5957993;28;20577;-39
2022/11/15 16:15:50;;;;;;;0.28;0.20;;;21.90;60.60;;;;;;5887392;28;20441;-39
2022/11/15 16:18:53;;;;;;;1.20;0.30;;;22.20;60.40;;;;;;6024210;28;20872;-39
2022/11/15 16:21:54;;;;;;;0.30;0.20;;;22.20;60.60;;;;;;6001363;28;20087;-39
2022/11/15 16:24:57;;;;;;;0.40;0.22;;;22.20;60.30;;;;;;6013682;28;20076;-38
2022/11/15 16:27:59;;;;;;;0.47;0.30;;;22.20;60.50;;;;;;6022994;28;20246;-39
2022/11/15 16:31:04;;;;;;;;;;;22.30;60.40;;;;;;6001772;28;20037;-41
2022/11/15 16:34:06;;;;;;;0.52;0.25;;;22.40;58.20;;;;;;6017498;28;19928;-41
2022/11/15 16:37:21;;;;;;;1.27;0.28;;;22.20;60.00;;;;;;5999329;28;20143;-41
2022/11/15 16:40:27;;;;;;;0.63;0.35;;;22.30;60.30;;;;;;5969798;28;20045;-40
2022/11/15 16:43:29;;;;;;;0.68;0.25;;;22.20;59.70;;;;;;6015552;28;20110;-40
2022/11/15 16:46:31;;;;;;;;;;;22.10;59.70;;;;;;6041985;28;20045;-40
2022/11/15 16:49:32;;;;;;;0.40;0.30;;;22.30;60.00;;;;;;6042327;28;19936;-40
2022/11/15 16:52:34;;;;;;;1.58;0.38;;;22.30;60.00;;;;;;6021295;28;20077;-39
2022/11/15 16:55:36;;;;;;;0.47;0.25;;;22.00;59.70;;;;;;6046079;28;20049;-39
2022/11/15 16:58:37;;;;;;;0.55;0.30;;;22.30;58.60;;;;;;6028725;28;20136;-40
2022/11/15 17:01:45;;;;;;;;;;;22.30;58.30;;;;;;6031719;28;20047;-39
2022/11/15 17:04:47;;;;;;;0.43;0.20;;;22.00;58.30;;;;;;6030011;28;20117;-39
2022/11/15 17:07:51;;;;;;;;;;;22.60;58.70;;;;;;6043713;28;20133;-39
2022/11/15 17:10:52;;;;;;;1.15;0.40;;;22.50;58.90;;;;;;6027246;28;21286;-40
2022/11/15 17:13:57;;;;;;;;;;;22.30;58.40;;;;;;6057834;28;20270;-40
2022/11/15 17:16:59;;;;;;;0.68;0.20;;;22.00;58.40;;;;;;6060843;28;19928;-40